Time;durP1;ratioP1;P1;durP2;ratioP2;P2;SDS_P1;SDS_P2;PMS_P1;PMS_P2;Temp;Humidity;BMP_temperature;BMP_pressure;BME280_temperature;BME280_humidity;BME280_pressure;Samples;Min_cycle;Max_cycle;Signal;HPM_P1;HPM_P2
2023/10/09 00:02:59;;;;;;;14.50;7.10;;;;;;;8.34;61.50;99933.67;232920;215;137008;-60
2023/10/09 00:08:05;;;;;;;12.00;7.20;;;;;;;8.27;61.71;99927.77;232893;215;149476;-59
2023/10/09 00:13:09;;;;;;;12.60;7.20;;;;;;;8.21;61.72;99920.03;232947;215;137709;-60
2023/10/09 00:18:13;;;;;;;16.00;7.50;;;;;;;8.15;61.81;99919.54;233013;216;137374;-61
2023/10/09 00:23:17;;;;;;;14.90;7.30;;;;;;;8.13;62.05;99921.21;233011;215;150162;-62
2023/10/09 00:28:23;;;;;;;13.20;7.90;;;;;;;8.14;62.78;99922.08;233011;215;139837;-62
2023/10/09 00:33:29;;;;;;;13.20;7.50;;;;;;;8.11;62.81;99920.07;233105;215;137009;-61
2023/10/09 00:38:34;;;;;;;14.80;8.10;;;;;;;8.07;62.60;99904.47;233053;215;150272;-61
2023/10/09 00:43:42;;;;;;;10.80;5.90;;;;;;;7.97;62.69;99893.36;232948;215;139902;-61
2023/10/09 00:48:57;;;;;;;16.20;7.80;;;;;;;7.89;62.98;99891.22;232938;215;137785;-61
2023/10/09 00:54:15;;;;;;;14.10;8.10;;;;;;;7.80;63.11;99884.99;233035;215;150037;-59
2023/10/09 00:59:21;;;;;;;14.60;8.30;;;;;;;7.75;63.35;99878.83;232926;215;139549;-61
2023/10/09 01:04:31;;;;;;;15.10;9.20;;;;;;;7.71;63.60;99866.27;232952;215;136793;-62
2023/10/09 01:09:38;;;;;;;18.00;9.20;;;;;;;7.72;63.94;99851.73;232950;215;149504;-63
2023/10/09 01:14:52;;;;;;;14.40;8.30;;;;;;;7.68;63.70;99837.05;233019;215;139113;-65
2023/10/09 01:19:58;;;;;;;14.40;8.70;;;;;;;7.70;63.70;99823.39;232980;215;137111;-64
2023/10/09 01:25:05;;;;;;;15.40;8.20;;;;;;;7.65;63.91;99825.67;232928;214;148824;-60
2023/10/09 01:30:13;;;;;;;18.40;9.00;;;;;;;7.56;63.94;99823.90;232973;215;140032;-62
2023/10/09 01:35:21;;;;;;;14.70;8.50;;;;;;;7.53;64.31;99813.23;233076;215;137435;-62
2023/10/09 01:40:35;;;;;;;18.40;8.30;;;;;;;7.49;64.42;99811.99;232936;215;149260;-61
2023/10/09 01:45:46;;;;;;;14.30;8.50;;;;;;;7.48;64.58;99823.67;232936;215;139952;-61
2023/10/09 01:50:50;;;;;;;15.00;8.60;;;;;;;7.50;64.69;99814.21;232943;215;137445;-60
2023/10/09 01:55:55;;;;;;;14.00;8.60;;;;;;;7.49;64.62;99818.86;232949;215;148411;-64
2023/10/09 02:01:04;;;;;;;14.20;8.50;;;;;;;7.44;64.66;99825.94;232959;216;141702;-59
2023/10/09 02:06:26;;;;;;;14.10;8.20;;;;;;;7.35;64.81;99813.92;233000;215;137616;-59
2023/10/09 02:11:41;;;;;;;15.60;8.50;;;;;;;7.26;64.94;99803.80;232977;215;149008;-60
2023/10/09 02:17:09;;;;;;;16.70;8.30;;;;;;;7.20;65.20;99801.91;232999;215;139454;-63
2023/10/09 02:22:17;;;;;;;15.10;8.80;;;;;;;7.23;65.40;99810.64;232980;215;136755;-63
2023/10/09 02:33:09;;;;;;;17.30;8.30;;;;;;;7.28;65.24;99803.39;232746;218;139272;-64
2023/10/09 02:38:14;;;;;;;16.00;8.40;;;;;;;7.37;65.19;99776.58;232863;215;137221;-61
2023/10/09 02:43:18;;;;;;;;;;;;;;;7.45;65.08;99775.77;233006;215;148500;-62
2023/10/09 02:48:26;;;;;;;14.70;8.60;;;;;;;7.53;65.28;99769.96;233009;215;139529;-62
2023/10/09 02:53:30;;;;;;;17.40;8.70;;;;;;;7.61;65.47;99768.63;232979;216;137854;-63
2023/10/09 02:58:36;;;;;;;19.50;8.80;;;;;;;7.69;65.33;99770.23;232978;215;149702;-62
2023/10/09 03:03:46;;;;;;;14.00;8.30;;;;;;;7.72;65.01;99773.48;233030;215;139424;-64
2023/10/09 03:08:51;;;;;;;14.70;7.90;;;;;;;7.71;65.18;99766.45;233050;215;137319;-63
2023/10/09 03:13:55;;;;;;;16.00;7.90;;;;;;;7.67;65.00;99760.09;232926;215;151956;-62
2023/10/09 03:18:59;;;;;;;12.80;7.30;;;;;;;7.62;65.01;99751.80;232924;215;140163;-59
2023/10/09 03:24:05;;;;;;;16.80;7.10;;;;;;;7.60;64.94;99753.11;232953;215;138466;-60
2023/10/09 03:29:10;;;;;;;;;;;;;;;7.60;65.02;99755.03;233003;215;149474;-60
2023/10/09 03:34:14;;;;;;;8.60;5.70;;;;;;;7.61;64.80;99753.62;233084;216;138774;-62
2023/10/09 03:39:24;;;;;;;11.30;5.90;;;;;;;7.60;64.90;99760.69;232903;215;136391;-62
2023/10/09 03:44:28;;;;;;;11.00;6.00;;;;;;;7.64;64.75;99760.73;233039;215;149009;-63
2023/10/09 03:49:32;;;;;;;11.20;5.70;;;;;;;7.64;64.88;99728.57;232817;214;139296;-61
2023/10/09 03:54:35;;;;;;;9.50;5.70;;;;;;;7.63;64.77;99721.91;233052;215;137948;-61
2023/10/09 03:59:40;;;;;;;9.70;5.60;;;;;;;7.66;64.58;99721.45;233030;215;149807;-66
2023/10/09 04:04:51;;;;;;;11.40;5.30;;;;;;;7.67;64.52;99710.45;233004;215;138052;-64
2023/10/09 04:10:02;;;;;;;9.70;5.20;;;;;;;7.67;64.50;99684.85;233035;215;139508;-63
2023/10/09 04:15:14;;;;;;;9.90;4.90;;;;;;;7.67;64.50;99688.73;233063;215;148944;-62
2023/10/09 04:25:29;;;;;;;9.20;4.80;;;;;;;7.68;64.17;99689.40;233087;215;136931;-68
2023/10/09 04:30:40;;;;;;;8.20;4.80;;;;;;;7.68;64.54;99686.39;233125;215;151570;-68
2023/10/09 04:36:11;;;;;;;8.60;5.10;;;;;;;7.69;64.47;99681.44;233087;215;140120;-68
2023/10/09 04:41:09;;;;;;;9.00;4.90;;;;;;;7.71;64.47;99672.67;233069;215;136999;-63
2023/10/09 04:46:13;;;;;;;9.30;5.40;;;;;;;7.71;64.45;99656.96;233043;215;149410;-62
2023/10/09 04:51:34;;;;;;;10.40;5.20;;;;;;;7.72;64.30;99651.98;233093;215;140528;-62
2023/10/09 04:56:51;;;;;;;8.00;4.80;;;;;;;7.73;64.32;99641.50;233068;215;136899;-64
2023/10/09 05:01:57;;;;;;;11.90;5.50;;;;;;;7.73;64.30;99649.65;233071;216;149003;-64
2023/10/09 05:07:22;;;;;;;10.10;5.10;;;;;;;7.73;64.31;99649.09;232918;215;138823;-60
2023/10/09 05:12:28;;;;;;;11.10;5.40;;;;;;;7.73;64.51;99637.23;233086;215;136757;-64
2023/10/09 05:17:34;;;;;;;14.50;5.50;;;;;;;7.73;64.40;99630.55;233026;216;149945;-63
2023/10/09 05:22:38;;;;;;;7.90;4.40;;;;;;;7.75;64.68;99629.05;233067;216;139979;-63
2023/10/09 05:27:45;;;;;;;23.60;16.30;;;;;;;7.78;64.80;99607.75;233020;215;137306;-68
2023/10/09 05:32:58;;;;;;;56.30;34.10;;;;;;;7.91;65.15;99600.85;233005;215;148784;-68
2023/10/09 05:38:03;;;;;;;15.40;5.20;;;;;;;8.04;64.77;99590.73;232908;215;139003;-62
2023/10/09 05:43:07;;;;;;;13.40;4.80;;;;;;;8.17;64.11;99585.42;233021;215;136888;-64
2023/10/09 05:53:55;;;;;;;178.30;104.50;;;;;;;8.28;63.52;99550.48;232985;215;139453;-69
2023/10/09 06:04:17;;;;;;;12.20;5.00;;;;;;;8.38;63.31;99540.67;232951;215;150559;-62
2023/10/09 06:14:45;;;;;;;8.50;4.40;;;;;;;8.37;63.33;99533.99;232912;215;137211;-67
2023/10/09 06:19:58;;;;;;;9.60;5.00;;;;;;;8.40;63.54;99537.43;233033;215;148364;-59
2023/10/09 06:25:11;;;;;;;48.70;31.80;;;;;;;8.45;64.03;99546.90;232925;215;139923;-59
2023/10/09 06:35:32;;;;;;;10.70;4.70;;;;;;;8.62;63.42;99564.56;233093;215;150277;-66
2023/10/09 07:01:42;;;;;;;12.30;4.30;;;;;;;8.66;63.26;99583.29;233030;215;136815;-63
2023/10/09 07:16:59;;;;;;;7.70;3.50;;;;;;;8.75;62.35;99577.56;232923;215;137532;-60
2023/10/09 07:22:04;;;;;;;107.50;76.60;;;;;;;8.79;62.00;99575.81;232950;215;151544;-60
2023/10/09 07:27:11;;;;;;;13.30;7.20;;;;;;;8.90;62.23;99578.09;232892;215;138793;-60
2023/10/09 07:32:20;;;;;;;9.10;4.00;;;;;;;8.93;61.64;99584.35;233018;215;137345;-60
2023/10/09 07:37:30;;;;;;;5.30;3.30;;;;;;;8.91;61.62;99577.16;232908;215;149286;-60
2023/10/09 07:42:43;;;;;;;9.30;3.60;;;;;;;8.92;61.73;99571.61;232966;215;141022;-60
2023/10/09 07:58:29;;;;;;;10.10;3.50;;;;;;;8.95;63.10;99558.38;233018;215;139866;-63
2023/10/09 08:03:34;;;;;;;6.80;3.60;;;;;;;8.99;63.80;99566.17;232899;215;137513;-59
2023/10/09 08:14:00;;;;;;;7.60;3.80;;;;;;;8.93;65.63;99578.65;233021;214;139417;-59
2023/10/09 08:24:52;;;;;;;8.00;4.60;;;;;;;9.06;67.16;99543.39;232957;216;149919;-60
2023/10/09 08:35:33;;;;;;;6.30;3.50;;;;;;;9.01;68.18;99543.59;233023;215;136886;-59
2023/10/09 08:40:40;;;;;;;6.20;2.60;;;;;;;9.03;68.55;99534.33;233065;215;232491;-59
2023/10/09 08:45:53;;;;;;;7.00;2.90;;;;;;;9.07;68.83;99527.05;233014;215;138899;-59
2023/10/09 08:50:58;;;;;;;4.40;2.30;;;;;;;9.14;69.40;99510.95;233055;215;136617;-60
2023/10/09 08:56:04;;;;;;;4.80;2.00;;;;;;;9.20;69.48;99498.10;232990;215;150740;-59
2023/10/09 09:01:07;;;;;;;2.70;1.60;;;;;;;9.26;69.79;99493.36;232907;215;138076;-57
2023/10/09 09:06:13;;;;;;;2.90;1.40;;;;;;;9.33;69.37;99484.90;233012;215;137578;-59
2023/10/09 09:11:22;;;;;;;2.60;1.10;;;;;;;9.43;68.91;99482.24;233031;215;149978;-58
2023/10/09 09:16:29;;;;;;;2.00;1.30;;;;;;;9.59;68.42;99475.43;232898;215;138601;-59
2023/10/09 09:21:40;;;;;;;1.90;1.00;;;;;;;9.67;67.76;99470.02;233039;215;137136;-60
2023/10/09 09:26:46;;;;;;;3.00;1.10;;;;;;;9.67;67.60;99459.58;232948;215;150583;-59
2023/10/09 09:33:12;;;;;;;266.20;187.10;;;;;;;9.69;67.23;99433.61;232923;215;139689;-58
2023/10/09 09:37:28;;;;;;;9.10;4.60;;;;;;;9.82;67.61;99424.61;232892;215;138694;-59
2023/10/09 09:42:34;;;;;;;3.90;1.70;;;;;;;9.80;67.11;99433.41;232955;215;149387;-60
2023/10/09 09:47:38;;;;;;;2.90;1.30;;;;;;;9.77;68.10;99423.98;232920;215;140202;-60
2023/10/09 09:52:42;;;;;;;3.00;1.60;;;;;;;9.83;67.58;99415.34;232959;215;136685;-61
2023/10/09 09:57:51;;;;;;;2.40;1.50;;;;;;;9.84;67.96;99404.13;232915;215;149364;-60
2023/10/09 10:03:01;;;;;;;4.20;1.40;;;;;;;9.90;67.06;99403.09;233079;216;139860;-57
2023/10/09 10:08:11;;;;;;;3.20;1.30;;;;;;;9.93;66.43;99417.63;233056;215;140478;-57
2023/10/09 10:13:23;;;;;;;2.50;1.40;;;;;;;9.93;65.98;99416.61;232971;215;150249;-61
2023/10/09 10:18:53;;;;;;;3.30;1.40;;;;;;;9.93;65.97;99413.02;233107;215;139672;-60
2023/10/09 10:24:05;;;;;;;1.40;1.00;;;;;;;9.96;65.78;99410.94;232983;215;136847;-59
2023/10/09 10:29:26;;;;;;;2.10;1.10;;;;;;;10.03;65.60;99390.88;233007;215;150364;-60
2023/10/09 10:34:56;;;;;;;4.00;1.30;;;;;;;10.01;65.69;99375.73;232982;215;139559;-60
2023/10/09 10:40:01;;;;;;;3.70;1.30;;;;;;;9.98;66.23;99363.15;232978;215;137053;-57
2023/10/09 10:45:34;;;;;;;4.20;1.50;;;;;;;9.92;67.12;99360.45;232956;215;150656;-60
2023/10/09 11:01:11;;;;;;;2.80;1.50;;;;;;;9.68;69.03;99341.55;232982;215;150167;-59
2023/10/09 11:06:15;;;;;;;2.80;1.50;;;;;;;9.72;69.79;99318.65;233070;216;138725;-61
2023/10/09 11:11:19;;;;;;;3.60;1.80;;;;;;;9.86;70.49;99309.73;232999;215;137949;-60
2023/10/09 11:16:42;;;;;;;6.60;1.80;;;;;;;9.86;70.30;99302.85;233041;215;149283;-59
2023/10/09 11:21:53;;;;;;;2.60;1.40;;;;;;;9.83;70.14;99287.77;233018;215;138938;-60
2023/10/09 11:27:04;;;;;;;3.00;1.50;;;;;;;9.77;70.48;99262.25;233119;216;137604;-59
2023/10/09 11:32:18;;;;;;;3.10;1.80;;;;;;;9.74;70.89;99250.36;232967;215;149527;-59
2023/10/09 11:42:49;;;;;;;2.80;1.60;;;;;;;9.76;71.42;99254.83;233090;215;138810;-58
2023/10/09 11:47:59;;;;;;;3.50;1.80;;;;;;;9.77;71.14;99249.11;233024;215;150180;-62
2023/10/09 11:53:09;;;;;;;3.60;1.90;;;;;;;9.76;70.95;99242.63;233074;215;139620;-59
2023/10/09 11:58:14;;;;;;;2.80;1.60;;;;;;;9.65;70.90;99232.02;233017;215;137613;-59
2023/10/09 12:03:21;;;;;;;2.80;1.80;;;;;;;9.62;71.45;99225.29;232894;215;149226;-59
2023/10/09 12:08:28;;;;;;;3.60;1.70;;;;;;;9.61;71.61;99220.24;233054;216;138899;-59
2023/10/09 12:13:32;;;;;;;3.40;1.70;;;;;;;9.62;71.50;99213.27;232921;215;138520;-59
2023/10/09 12:18:36;;;;;;;3.10;1.60;;;;;;;9.63;71.44;99215.48;233025;215;148762;-58
2023/10/09 12:23:43;;;;;;;3.40;1.90;;;;;;;9.59;71.65;99225.10;232977;215;138880;-59
2023/10/09 12:28:47;;;;;;;2.30;1.70;;;;;;;9.50;71.78;99219.27;233055;215;137833;-59
2023/10/09 12:33:51;;;;;;;2.80;1.60;;;;;;;9.48;72.06;99212.27;233043;216;150239;-59
2023/10/09 12:38:58;;;;;;;2.20;1.60;;;;;;;9.49;72.28;99201.95;233030;215;138398;-59
2023/10/09 12:44:04;;;;;;;1.60;1.20;;;;;;;9.53;72.59;99194.65;233025;215;139748;-58
2023/10/09 12:49:08;;;;;;;3.00;1.60;;;;;;;9.55;72.69;99188.71;232952;215;149202;-59
2023/10/09 12:54:14;;;;;;;3.40;1.50;;;;;;;9.61;72.67;99197.39;232964;215;140831;-59
2023/10/09 12:59:20;;;;;;;2.50;1.60;;;;;;;9.67;72.71;99192.64;232950;215;139177;-58
2023/10/09 13:04:24;;;;;;;3.40;1.60;;;;;;;9.68;72.48;99186.70;233064;215;150610;-60
2023/10/09 13:09:35;;;;;;;2.20;1.40;;;;;;;9.68;72.54;99187.59;233034;212;138622;-58
2023/10/09 13:14:41;;;;;;;2.00;1.40;;;;;;;9.70;72.58;99192.60;232963;215;138394;-59
2023/10/09 13:19:45;;;;;;;;;;;;;;;9.65;72.62;99199.44;232946;215;148895;-59
2023/10/09 13:24:49;;;;;;;1.90;1.30;;;;;;;9.73;72.64;99193.17;233047;215;138927;-58
2023/10/09 13:29:53;;;;;;;2.70;1.70;;;;;;;9.68;72.40;99186.52;232970;215;136921;-59
2023/10/09 13:34:58;;;;;;;2.30;1.50;;;;;;;9.62;72.59;99172.50;233001;215;150663;-59
2023/10/09 13:40:11;;;;;;;1.70;1.40;;;;;;;9.65;72.72;99169.70;232892;215;138628;-58
2023/10/09 13:45:15;;;;;;;2.70;1.80;;;;;;;9.61;72.73;99171.88;233010;215;136833;-59
2023/10/09 13:50:21;;;;;;;3.50;1.60;;;;;;;9.57;72.93;99166.97;232960;215;150196;-59
2023/10/09 13:55:33;;;;;;;2.40;1.70;;;;;;;9.58;73.26;99158.94;232981;215;140455;-59
2023/10/09 14:00:42;;;;;;;2.20;1.80;;;;;;;9.62;73.08;99158.36;233079;216;137690;-59
2023/10/09 14:05:56;;;;;;;4.60;1.90;;;;;;;9.68;72.96;99150.75;233066;215;150201;-59
2023/10/09 14:11:03;;;;;;;2.80;1.60;;;;;;;9.75;72.71;99151.80;232989;215;140303;-56
2023/10/09 14:16:23;;;;;;;3.20;2.20;;;;;;;9.74;72.69;99144.39;233003;215;136970;-59
2023/10/09 14:21:32;;;;;;;3.90;2.40;;;;;;;9.61;72.98;99144.20;233118;216;148231;-60
2023/10/09 14:26:36;;;;;;;2.40;1.80;;;;;;;9.51;73.61;99133.99;233015;215;138964;-59
2023/10/09 14:31:40;;;;;;;3.00;1.60;;;;;;;9.55;73.79;99127.55;233009;215;137409;-59
2023/10/09 14:36:43;;;;;;;4.20;2.20;;;;;;;9.58;73.92;99133.09;233010;215;151302;-59
2023/10/09 14:41:47;;;;;;;3.40;2.00;;;;;;;9.63;73.85;99134.03;233017;215;139545;-58
2023/10/09 14:46:51;;;;;;;3.00;1.90;;;;;;;9.67;74.04;99148.17;233108;215;137593;-59
2023/10/09 14:51:55;;;;;;;3.50;1.90;;;;;;;9.70;74.19;99157.38;232961;215;150334;-59
2023/10/09 14:56:59;;;;;;;3.90;2.30;;;;;;;9.67;74.18;99160.04;233077;216;139344;-58
2023/10/09 15:02:05;;;;;;;3.20;2.10;;;;;;;9.61;74.55;99155.91;232908;215;137193;-58
2023/10/09 15:07:08;;;;;;;5.00;1.90;;;;;;;9.56;74.86;99154.62;233037;215;149563;-58
2023/10/09 15:12:12;;;;;;;2.60;1.70;;;;;;;9.58;75.34;99155.37;233031;215;139512;-58
2023/10/09 15:17:16;;;;;;;2.50;2.00;;;;;;;9.65;75.26;99154.13;233053;215;138081;-59
2023/10/09 15:22:22;;;;;;;3.10;2.00;;;;;;;9.68;75.14;99155.02;232981;215;149703;-59
2023/10/09 15:27:28;;;;;;;73.00;50.60;;;;;;;9.77;76.95;99158.37;233082;215;138165;-60
2023/10/09 15:32:34;;;;;;;5.20;3.90;;;;;;;10.05;75.79;99163.38;233051;215;137628;-57
2023/10/09 15:37:40;;;;;;;3.30;2.60;;;;;;;9.96;75.05;99170.27;233022;215;149912;-59
2023/10/09 15:42:49;;;;;;;2.80;2.10;;;;;;;9.88;75.04;99176.20;233298;215;138444;-68
2023/10/09 15:47:55;;;;;;;3.40;2.10;;;;;;;9.85;74.91;99177.95;233091;215;138164;-67
2023/10/09 15:52:59;;;;;;;4.50;2.30;;;;;;;9.82;74.99;99176.39;233054;215;149884;-68
2023/10/09 15:58:03;;;;;;;4.30;2.50;;;;;;;9.78;74.74;99186.14;232954;215;138761;-67
2023/10/09 16:03:09;;;;;;;4.20;2.30;;;;;;;9.76;74.89;99193.75;232899;215;138500;-69
2023/10/09 16:08:14;;;;;;;4.30;2.50;;;;;;;9.72;75.13;99171.11;232950;215;149461;-68
2023/10/09 16:13:21;;;;;;;5.20;3.00;;;;;;;9.70;75.11;99156.31;232980;215;140579;-68
2023/10/09 16:18:28;;;;;;;3.80;2.70;;;;;;;9.67;75.00;99140.35;233004;215;138645;-71
2023/10/09 16:23:32;;;;;;;3.50;2.60;;;;;;;9.64;75.26;99149.71;233021;215;150195;-69
2023/10/09 16:28:37;;;;;;;5.00;3.00;;;;;;;9.61;75.41;99151.66;233008;215;139094;-70
2023/10/09 16:33:41;;;;;;;6.00;3.50;;;;;;;9.64;75.45;99168.48;232971;215;137533;-71
2023/10/09 16:38:46;;;;;;;4.50;3.20;;;;;;;9.73;75.67;99210.52;233016;215;150361;-69
2023/10/09 16:43:50;;;;;;;4.60;3.30;;;;;;;9.82;75.52;99214.49;233057;215;142622;-70
2023/10/09 16:48:59;;;;;;;5.90;3.60;;;;;;;9.81;75.28;99214.87;233091;216;137706;-66
2023/10/09 16:54:04;;;;;;;7.60;3.70;;;;;;;9.80;75.45;99212.83;235101;216;149611;-70
2023/10/09 16:59:13;;;;;;;4.50;3.10;;;;;;;9.77;75.72;99222.56;235051;216;137860;-70
2023/10/09 17:04:19;;;;;;;3.90;3.10;;;;;;;9.78;75.88;99218.06;234976;216;137699;-69
2023/10/09 17:09:24;;;;;;;8.10;4.00;;;;;;;9.83;75.87;99225.19;234983;215;149424;-69
2023/10/09 17:14:28;;;;;;;7.90;4.30;;;;;;;9.90;75.84;99232.07;235035;216;139907;-69
2023/10/09 17:19:32;;;;;;;6.90;4.20;;;;;;;9.94;75.65;99232.38;235017;215;137618;-68
2023/10/09 17:24:39;;;;;;;7.10;4.10;;;;;;;9.97;75.64;99232.03;235057;216;148347;-68
2023/10/09 17:29:47;;;;;;;6.20;4.70;;;;;;;9.99;75.58;99248.59;235026;216;137632;-70
2023/10/09 17:34:53;;;;;;;9.20;5.50;;;;;;;10.02;75.56;99260.64;235069;216;136979;-68
2023/10/09 17:44:55;;;;;;;10.30;5.70;;;;;;;10.17;75.25;99271.88;231457;224;724310;-70
2023/10/09 17:50:11;;;;;;;8.20;6.30;;;;;;;10.18;74.81;99271.59;232489;219;136588;-69
2023/10/09 17:55:17;;;;;;;10.50;7.00;;;;;;;10.20;74.60;99255.89;232733;218;145712;-70
2023/10/09 18:00:22;;;;;;;9.10;6.80;;;;;;;10.19;74.24;99255.98;232626;218;138911;-66
2023/10/09 18:05:29;;;;;;;9.60;6.90;;;;;;;10.12;73.92;99259.56;232842;218;137057;-69
2023/10/09 18:10:35;;;;;;;8.60;6.50;;;;;;;10.06;73.77;99258.11;232645;218;145239;-68
2023/10/09 18:15:41;;;;;;;9.30;6.30;;;;;;;10.01;73.92;99260.17;233041;216;138888;-67
2023/10/09 18:20:47;;;;;;;5.60;4.40;;;;;;;10.01;73.77;99265.54;233161;216;136952;-68
2023/10/09 18:25:58;;;;;;;7.50;5.30;;;;;;;10.06;74.16;99268.55;232950;215;145655;-69
2023/10/09 18:31:05;;;;;;;7.20;5.80;;;;;;;10.09;74.28;99270.35;233139;215;139772;-67
2023/10/09 18:36:09;;;;;;;5.90;5.30;;;;;;;10.07;74.36;99274.20;233111;215;136624;-68
2023/10/09 18:41:12;;;;;;;6.90;5.40;;;;;;;10.02;74.62;99275.89;233079;215;145526;-68
2023/10/09 18:46:18;;;;;;;9.90;6.50;;;;;;;9.98;74.99;99273.10;233180;216;138512;-73
2023/10/09 18:51:22;;;;;;;352.00;249.70;;;;;;;9.99;75.64;99275.91;233147;216;136553;-71
2023/10/09 18:56:28;;;;;;;12.10;7.70;;;;;;;10.10;75.65;99277.03;233183;216;146617;-69
2023/10/09 19:01:32;;;;;;;7.00;5.20;;;;;;;10.05;74.77;99287.76;233099;217;137825;-67
2023/10/09 19:06:37;;;;;;;10.40;6.00;;;;;;;10.03;74.59;99283.83;233123;217;137386;-68
2023/10/09 19:11:41;;;;;;;8.40;6.10;;;;;;;10.03;74.87;99277.48;233053;217;146017;-65
2023/10/09 19:16:46;;;;;;;10.10;7.30;;;;;;;10.02;74.91;99274.87;233171;217;139631;-65
2023/10/09 19:21:53;;;;;;;11.10;7.40;;;;;;;9.98;75.05;99279.11;233231;217;136997;-68
2023/10/09 19:26:56;;;;;;;10.90;6.70;;;;;;;9.97;74.79;99283.27;233103;217;146419;-68
2023/10/09 19:32:02;;;;;;;;;;;;;;;9.93;75.11;99286.32;233243;217;141719;-67
2023/10/09 19:37:07;;;;;;;10.70;7.60;;;;;;;9.91;75.29;99288.02;233238;217;131132;-67
2023/10/09 19:42:11;;;;;;;9.40;7.90;;;;;;;9.87;75.40;99297.64;233122;217;145459;-73
2023/10/09 19:47:16;;;;;;;11.00;7.00;;;;;;;9.86;75.68;99292.01;233175;217;139743;-66
2023/10/09 19:52:21;;;;;;;14.00;7.70;;;;;;;9.89;75.53;99292.73;233126;217;137548;-68
2023/10/09 19:57:28;;;;;;;10.10;8.00;;;;;;;9.98;75.52;99297.39;233102;217;147095;-67
2023/10/09 20:02:34;;;;;;;175.30;122.00;;;;;;;9.99;75.53;99293.58;233133;217;140770;-69
2023/10/09 20:07:38;;;;;;;;;;;;;;;10.20;76.77;99297.79;233003;215;137622;-70
2023/10/09 20:12:42;;;;;;;12.70;10.20;;;;;;;10.18;75.18;99304.39;232984;215;146529;-73
2023/10/09 20:17:46;;;;;;;14.20;10.70;;;;;;;10.10;75.31;99311.23;232880;215;138429;-72
2023/10/09 20:22:52;;;;;;;14.40;10.70;;;;;;;10.07;75.82;99315.88;232750;214;137956;-73
2023/10/09 20:27:56;;;;;;;13.20;10.40;;;;;;;10.06;76.00;99311.13;232987;215;146498;-73
2023/10/09 20:33:01;;;;;;;16.90;11.10;;;;;;;10.09;76.06;99307.60;232912;215;140615;-62
2023/10/09 20:38:06;;;;;;;18.60;12.00;;;;;;;10.12;75.94;99300.16;232886;215;137137;-69
2023/10/09 20:43:11;;;;;;;17.50;12.50;;;;;;;10.11;75.92;99299.29;232993;215;144628;-69
2023/10/09 20:48:16;;;;;;;14.60;11.30;;;;;;;10.09;75.72;99297.67;232831;215;140238;-72
2023/10/09 20:53:20;;;;;;;13.50;10.80;;;;;;;10.04;75.67;99297.42;233006;215;137854;-73
2023/10/09 20:58:24;;;;;;;14.20;11.30;;;;;;;10.00;75.57;99312.00;232950;214;146543;-71
2023/10/09 21:03:29;;;;;;;13.00;9.50;;;;;;;9.96;75.61;99318.41;232937;214;140005;-68
2023/10/09 21:08:33;;;;;;;10.60;8.70;;;;;;;9.95;75.59;99317.04;232951;215;137391;-67
2023/10/09 21:13:39;;;;;;;12.60;10.00;;;;;;;10.01;75.74;99315.67;232984;215;144479;-72
2023/10/09 21:18:45;;;;;;;13.90;9.90;;;;;;;10.06;75.58;99316.65;232978;215;139900;-72
2023/10/09 21:23:49;;;;;;;;;;;;;;;10.09;75.68;99318.21;233039;214;136702;-73
2023/10/09 21:28:53;;;;;;;11.00;9.80;;;;;;;10.09;75.62;99324.27;233035;214;146247;-69
2023/10/09 21:33:58;;;;;;;12.90;9.20;;;;;;;10.05;75.43;99322.71;232917;215;140990;-69
2023/10/09 21:40:05;;;;;;;12.20;9.70;;;;;;;10.01;75.48;99322.58;233089;214;137620;31
2023/10/09 21:45:12;;;;;;;14.40;8.90;;;;;;;9.91;75.62;99333.04;233558;214;147029;-66
2023/10/09 21:50:16;;;;;;;12.00;8.50;;;;;;;9.89;75.80;99329.08;234153;217;138662;-68
2023/10/09 21:55:19;;;;;;;14.40;10.40;;;;;;;10.01;75.70;99321.52;234496;215;140200;-70
2023/10/09 22:00:30;;;;;;;18.30;12.80;;;;;;;10.08;75.56;99326.48;234387;216;145557;-68
2023/10/09 22:05:43;;;;;;;22.20;13.50;;;;;;;10.11;75.41;99322.70;234375;216;138754;-67
2023/10/09 22:10:47;;;;;;;22.60;13.80;;;;;;;10.16;74.94;99337.88;234354;216;137066;-66
2023/10/09 22:15:51;;;;;;;26.60;14.10;;;;;;;10.11;75.09;99352.52;234407;217;145687;-67
2023/10/09 22:20:56;;;;;;;22.50;13.00;;;;;;;10.05;75.49;99360.27;234417;216;138975;-69
2023/10/09 22:26:00;;;;;;;15.90;11.10;;;;;;;10.03;75.60;99363.05;234347;216;138659;-68
2023/10/09 22:31:10;;;;;;;15.80;11.10;;;;;;;10.09;75.48;99364.52;234292;216;145806;-70
2023/10/09 22:36:27;;;;;;;19.10;11.60;;;;;;;10.06;75.24;99363.44;234303;216;140991;-67
2023/10/09 22:41:53;;;;;;;;;;;;;;;10.12;75.31;99361.30;234362;216;137619;-68
2023/10/09 22:47:04;;;;;;;14.80;11.30;;;;;;;10.17;74.80;99359.80;234390;217;145501;-68
2023/10/09 22:52:10;;;;;;;17.50;12.30;;;;;;;10.09;74.84;99366.98;234391;209;139589;-70
2023/10/09 22:57:16;;;;;;;19.80;13.00;;;;;;;10.05;74.96;99360.49;234428;215;139947;-71
2023/10/09 23:02:42;;;;;;;16.00;12.60;;;;;;;10.06;75.08;99365.02;234165;214;145634;-63
2023/10/09 23:07:58;;;;;;;17.50;12.50;;;;;;;10.11;75.10;99361.55;234267;217;139883;-68
2023/10/09 23:13:17;;;;;;;18.90;12.10;;;;;;;10.27;74.88;99359.63;234501;216;138025;-67
2023/10/09 23:18:32;;;;;;;17.90;11.90;;;;;;;10.30;74.60;99368.70;234513;217;146083;-72
2023/10/09 23:23:40;;;;;;;11.90;8.60;;;;;;;10.36;74.45;99361.94;234465;217;140146;-70
2023/10/09 23:28:50;;;;;;;13.30;9.40;;;;;;;10.32;73.86;99368.73;234503;217;136781;-73
2023/10/09 23:33:58;;;;;;;12.50;8.50;;;;;;;10.19;73.82;99373.50;234455;217;146349;-71
2023/10/09 23:39:35;;;;;;;10.60;8.00;;;;;;;10.19;73.75;99378.66;234461;217;139327;-68
2023/10/09 23:44:36;;;;;;;11.30;8.90;;;;;;;10.17;73.68;99379.67;234392;216;138394;-70
2023/10/09 23:49:43;;;;;;;10.30;9.20;;;;;;;10.18;73.67;99383.66;234516;217;147999;-69
2023/10/09 23:54:56;;;;;;;12.30;9.80;;;;;;;10.21;73.56;99387.95;234411;214;138569;-68
